sensor_id;sensor_type;location;lat;lon;timestamp;P1;durP1;ratioP1;P2;durP2;ratioP2
7501;SDS011;3792;47.740;7.606;2024-03-02T00:01:37;5.90;;;4.33;;
7501;SDS011;3792;47.740;7.606;2024-03-02T00:04:04;5.93;;;3.87;;
7501;SDS011;3792;47.740;7.606;2024-03-02T00:06:32;5.00;;;4.07;;
7501;SDS011;3792;47.740;7.606;2024-03-02T00:08:59;4.77;;;3.70;;
7501;SDS011;3792;47.740;7.606;2024-03-02T00:11:26;4.27;;;3.80;;
7501;SDS011;3792;47.740;7.606;2024-03-02T00:13:53;4.17;;;3.77;;
7501;SDS011;3792;47.740;7.606;2024-03-02T00:16:21;4.33;;;3.93;;
7501;SDS011;3792;47.740;7.606;2024-03-02T00:18:50;5.60;;;3.80;;
7501;SDS011;3792;47.740;7.606;2024-03-02T00:21:17;4.93;;;4.00;;
7501;SDS011;3792;47.740;7.606;2024-03-02T00:23:47;4.60;;;3.50;;
7501;SDS011;3792;47.740;7.606;2024-03-02T00:26:17;4.87;;;4.20;;
7501;SDS011;3792;47.740;7.606;2024-03-02T00:28:44;5.07;;;3.90;;
7501;SDS011;3792;47.740;7.606;2024-03-02T00:31:12;7.30;;;3.97;;
7501;SDS011;3792;47.740;7.606;2024-03-02T00:33:40;5.63;;;4.07;;
7501;SDS011;3792;47.740;7.606;2024-03-02T00:36:10;3.77;;;3.47;;
7501;SDS011;3792;47.740;7.606;2024-03-02T00:38:44;4.37;;;3.93;;
7501;SDS011;3792;47.740;7.606;2024-03-02T00:41:15;5.00;;;3.80;;
7501;SDS011;3792;47.740;7.606;2024-03-02T00:43:50;6.33;;;4.00;;
7501;SDS011;3792;47.740;7.606;2024-03-02T00:46:23;4.07;;;3.60;;
7501;SDS011;3792;47.740;7.606;2024-03-02T00:48:51;4.43;;;3.40;;
7501;SDS011;3792;47.740;7.606;2024-03-02T00:51:22;4.53;;;3.67;;
7501;SDS011;3792;47.740;7.606;2024-03-02T00:53:51;3.73;;;3.43;;
7501;SDS011;3792;47.740;7.606;2024-03-02T00:56:21;7.27;;;4.07;;
7501;SDS011;3792;47.740;7.606;2024-03-02T00:58:49;3.63;;;3.30;;
7501;SDS011;3792;47.740;7.606;2024-03-02T01:01:16;4.63;;;3.70;;
7501;SDS011;3792;47.740;7.606;2024-03-02T01:03:43;4.40;;;3.53;;
7501;SDS011;3792;47.740;7.606;2024-03-02T01:06:10;4.73;;;3.90;;
7501;SDS011;3792;47.740;7.606;2024-03-02T01:08:39;4.63;;;3.63;;
7501;SDS011;3792;47.740;7.606;2024-03-02T01:11:06;3.50;;;3.00;;
7501;SDS011;3792;47.740;7.606;2024-03-02T01:13:33;4.23;;;3.40;;
7501;SDS011;3792;47.740;7.606;2024-03-02T01:16:00;3.67;;;3.20;;
7501;SDS011;3792;47.740;7.606;2024-03-02T01:18:28;4.80;;;3.50;;
7501;SDS011;3792;47.740;7.606;2024-03-02T01:20:55;4.13;;;3.53;;
7501;SDS011;3792;47.740;7.606;2024-03-02T01:23:22;4.20;;;3.23;;
7501;SDS011;3792;47.740;7.606;2024-03-02T01:25:51;6.80;;;3.90;;
7501;SDS011;3792;47.740;7.606;2024-03-02T01:28:18;4.10;;;3.43;;
7501;SDS011;3792;47.740;7.606;2024-03-02T01:30:47;4.40;;;4.00;;
7501;SDS011;3792;47.740;7.606;2024-03-02T01:33:15;4.20;;;3.40;;
7501;SDS011;3792;47.740;7.606;2024-03-02T01:35:42;3.90;;;3.53;;
7501;SDS011;3792;47.740;7.606;2024-03-02T01:38:09;5.27;;;3.80;;
7501;SDS011;3792;47.740;7.606;2024-03-02T01:40:37;3.77;;;3.27;;
7501;SDS011;3792;47.740;7.606;2024-03-02T01:43:06;4.20;;;3.43;;
7501;SDS011;3792;47.740;7.606;2024-03-02T01:45:33;4.40;;;3.20;;
7501;SDS011;3792;47.740;7.606;2024-03-02T01:48:02;4.57;;;3.30;;
7501;SDS011;3792;47.740;7.606;2024-03-02T01:50:31;4.43;;;3.37;;
7501;SDS011;3792;47.740;7.606;2024-03-02T01:52:59;5.07;;;3.73;;
7501;SDS011;3792;47.740;7.606;2024-03-02T01:55:27;3.73;;;3.40;;
7501;SDS011;3792;47.740;7.606;2024-03-02T01:57:55;3.47;;;3.03;;
7501;SDS011;3792;47.740;7.606;2024-03-02T02:00:24;5.03;;;3.83;;
7501;SDS011;3792;47.740;7.606;2024-03-02T02:02:51;5.07;;;3.60;;
7501;SDS011;3792;47.740;7.606;2024-03-02T02:05:19;4.77;;;3.50;;
7501;SDS011;3792;47.740;7.606;2024-03-02T02:07:46;4.10;;;3.70;;
7501;SDS011;3792;47.740;7.606;2024-03-02T02:10:13;4.77;;;3.10;;
7501;SDS011;3792;47.740;7.606;2024-03-02T02:12:40;5.97;;;3.60;;
7501;SDS011;3792;47.740;7.606;2024-03-02T02:15:25;5.27;;;3.77;;
7501;SDS011;3792;47.740;7.606;2024-03-02T02:17:52;6.27;;;3.87;;
7501;SDS011;3792;47.740;7.606;2024-03-02T02:20:21;5.97;;;4.00;;
7501;SDS011;3792;47.740;7.606;2024-03-02T02:22:56;4.23;;;3.83;;
7501;SDS011;3792;47.740;7.606;2024-03-02T02:25:24;3.90;;;3.20;;
7501;SDS011;3792;47.740;7.606;2024-03-02T02:27:51;4.70;;;3.27;;
7501;SDS011;3792;47.740;7.606;2024-03-02T02:30:19;6.00;;;4.20;;
7501;SDS011;3792;47.740;7.606;2024-03-02T02:32:47;4.50;;;3.70;;
7501;SDS011;3792;47.740;7.606;2024-03-02T02:35:14;4.33;;;3.63;;
7501;SDS011;3792;47.740;7.606;2024-03-02T02:37:41;4.20;;;3.53;;
7501;SDS011;3792;47.740;7.606;2024-03-02T02:40:11;4.90;;;4.17;;
7501;SDS011;3792;47.740;7.606;2024-03-02T02:42:38;6.77;;;3.83;;
7501;SDS011;3792;47.740;7.606;2024-03-02T02:45:06;5.00;;;3.70;;
7501;SDS011;3792;47.740;7.606;2024-03-02T02:47:33;3.77;;;3.13;;
7501;SDS011;3792;47.740;7.606;2024-03-02T02:50:01;4.97;;;3.23;;
7501;SDS011;3792;47.740;7.606;2024-03-02T02:52:32;5.43;;;3.80;;
7501;SDS011;3792;47.740;7.606;2024-03-02T02:55:01;5.13;;;3.60;;
7501;SDS011;3792;47.740;7.606;2024-03-02T02:57:34;4.80;;;3.40;;
7501;SDS011;3792;47.740;7.606;2024-03-02T03:00:05;3.17;;;2.87;;
7501;SDS011;3792;47.740;7.606;2024-03-02T03:02:36;3.80;;;3.07;;
7501;SDS011;3792;47.740;7.606;2024-03-02T03:05:04;3.83;;;3.07;;
7501;SDS011;3792;47.740;7.606;2024-03-02T03:07:32;4.43;;;2.83;;
7501;SDS011;3792;47.740;7.606;2024-03-02T03:10:00;3.70;;;3.10;;
7501;SDS011;3792;47.740;7.606;2024-03-02T03:12:28;3.10;;;2.80;;
7501;SDS011;3792;47.740;7.606;2024-03-02T03:14:57;5.43;;;3.67;;
7501;SDS011;3792;47.740;7.606;2024-03-02T03:17:24;4.23;;;3.00;;
7501;SDS011;3792;47.740;7.606;2024-03-02T03:19:52;3.97;;;3.40;;
7501;SDS011;3792;47.740;7.606;2024-03-02T03:22:19;3.47;;;3.17;;
7501;SDS011;3792;47.740;7.606;2024-03-02T03:24:46;3.57;;;2.97;;
7501;SDS011;3792;47.740;7.606;2024-03-02T03:27:13;3.00;;;2.67;;
7501;SDS011;3792;47.740;7.606;2024-03-02T03:29:41;3.23;;;2.93;;
7501;SDS011;3792;47.740;7.606;2024-03-02T03:32:09;4.93;;;3.10;;
7501;SDS011;3792;47.740;7.606;2024-03-02T03:34:36;3.03;;;2.67;;
7501;SDS011;3792;47.740;7.606;2024-03-02T03:37:03;3.53;;;2.87;;
7501;SDS011;3792;47.740;7.606;2024-03-02T03:39:30;3.17;;;2.87;;
7501;SDS011;3792;47.740;7.606;2024-03-02T03:41:57;3.20;;;2.67;;
7501;SDS011;3792;47.740;7.606;2024-03-02T03:44:24;3.10;;;2.80;;
7501;SDS011;3792;47.740;7.606;2024-03-02T03:46:51;3.50;;;3.03;;
7501;SDS011;3792;47.740;7.606;2024-03-02T03:49:19;3.83;;;2.73;;
7501;SDS011;3792;47.740;7.606;2024-03-02T03:51:47;3.87;;;2.93;;
7501;SDS011;3792;47.740;7.606;2024-03-02T03:54:14;3.33;;;3.03;;
7501;SDS011;3792;47.740;7.606;2024-03-02T03:56:41;3.63;;;3.00;;
7501;SDS011;3792;47.740;7.606;2024-03-02T03:59:08;3.73;;;2.90;;
7501;SDS011;3792;47.740;7.606;2024-03-02T04:01:35;3.50;;;2.50;;
7501;SDS011;3792;47.740;7.606;2024-03-02T04:04:02;3.80;;;2.90;;
7501;SDS011;3792;47.740;7.606;2024-03-02T04:06:31;3.03;;;2.70;;
7501;SDS011;3792;47.740;7.606;2024-03-02T04:08:58;2.77;;;2.57;;
7501;SDS011;3792;47.740;7.606;2024-03-02T04:11:25;3.20;;;2.60;;
7501;SDS011;3792;47.740;7.606;2024-03-02T04:13:52;2.73;;;2.33;;
7501;SDS011;3792;47.740;7.606;2024-03-02T04:16:19;3.10;;;2.80;;
7501;SDS011;3792;47.740;7.606;2024-03-02T04:18:46;3.23;;;2.67;;
7501;SDS011;3792;47.740;7.606;2024-03-02T04:21:13;3.10;;;2.77;;
7501;SDS011;3792;47.740;7.606;2024-03-02T04:23:41;6.83;;;3.03;;
7501;SDS011;3792;47.740;7.606;2024-03-02T04:26:08;5.67;;;3.10;;
7501;SDS011;3792;47.740;7.606;2024-03-02T04:28:35;4.53;;;3.20;;
7501;SDS011;3792;47.740;7.606;2024-03-02T04:31:03;4.37;;;3.17;;
7501;SDS011;3792;47.740;7.606;2024-03-02T04:33:30;4.33;;;2.70;;
7501;SDS011;3792;47.740;7.606;2024-03-02T04:35:57;3.40;;;2.83;;
7501;SDS011;3792;47.740;7.606;2024-03-02T04:38:24;4.77;;;3.20;;
7501;SDS011;3792;47.740;7.606;2024-03-02T04:40:52;3.17;;;2.87;;
7501;SDS011;3792;47.740;7.606;2024-03-02T04:43:19;3.37;;;3.07;;
7501;SDS011;3792;47.740;7.606;2024-03-02T04:45:46;3.80;;;2.60;;
7501;SDS011;3792;47.740;7.606;2024-03-02T04:48:13;3.77;;;2.77;;
7501;SDS011;3792;47.740;7.606;2024-03-02T04:50:40;3.20;;;2.87;;
7501;SDS011;3792;47.740;7.606;2024-03-02T04:53:07;3.90;;;2.57;;
7501;SDS011;3792;47.740;7.606;2024-03-02T04:55:34;2.87;;;2.60;;
7501;SDS011;3792;47.740;7.606;2024-03-02T04:58:46;5.63;;;3.27;;
7501;SDS011;3792;47.740;7.606;2024-03-02T05:01:13;3.13;;;2.83;;
7501;SDS011;3792;47.740;7.606;2024-03-02T05:03:42;3.13;;;2.70;;
7501;SDS011;3792;47.740;7.606;2024-03-02T05:06:10;2.80;;;2.60;;
7501;SDS011;3792;47.740;7.606;2024-03-02T05:08:37;2.90;;;2.67;;
7501;SDS011;3792;47.740;7.606;2024-03-02T05:11:04;3.10;;;2.20;;
7501;SDS011;3792;47.740;7.606;2024-03-02T05:13:46;2.97;;;2.67;;
7501;SDS011;3792;47.740;7.606;2024-03-02T05:16:13;3.07;;;2.50;;
7501;SDS011;3792;47.740;7.606;2024-03-02T05:18:40;3.40;;;2.57;;
7501;SDS011;3792;47.740;7.606;2024-03-02T05:21:07;4.27;;;2.67;;
7501;SDS011;3792;47.740;7.606;2024-03-02T05:23:34;2.67;;;2.40;;
7501;SDS011;3792;47.740;7.606;2024-03-02T05:26:02;2.63;;;2.43;;
7501;SDS011;3792;47.740;7.606;2024-03-02T05:28:29;3.17;;;2.60;;
7501;SDS011;3792;47.740;7.606;2024-03-02T05:30:58;4.67;;;2.50;;
7501;SDS011;3792;47.740;7.606;2024-03-02T05:33:25;2.70;;;2.50;;
7501;SDS011;3792;47.740;7.606;2024-03-02T05:35:52;2.50;;;2.30;;
7501;SDS011;3792;47.740;7.606;2024-03-02T05:38:19;3.17;;;2.60;;
7501;SDS011;3792;47.740;7.606;2024-03-02T05:40:47;3.20;;;2.70;;
7501;SDS011;3792;47.740;7.606;2024-03-02T05:43:14;2.50;;;2.30;;
7501;SDS011;3792;47.740;7.606;2024-03-02T05:45:41;3.97;;;2.50;;
7501;SDS011;3792;47.740;7.606;2024-03-02T05:48:09;3.67;;;2.37;;
7501;SDS011;3792;47.740;7.606;2024-03-02T05:50:36;2.33;;;2.13;;
7501;SDS011;3792;47.740;7.606;2024-03-02T05:53:03;3.70;;;2.50;;
7501;SDS011;3792;47.740;7.606;2024-03-02T05:55:30;3.60;;;2.10;;
7501;SDS011;3792;47.740;7.606;2024-03-02T05:57:57;2.67;;;2.30;;
7501;SDS011;3792;47.740;7.606;2024-03-02T06:00:41;2.70;;;2.30;;
7501;SDS011;3792;47.740;7.606;2024-03-02T06:03:10;2.20;;;1.90;;
7501;SDS011;3792;47.740;7.606;2024-03-02T06:05:37;2.63;;;2.43;;
7501;SDS011;3792;47.740;7.606;2024-03-02T06:08:04;2.63;;;1.90;;
7501;SDS011;3792;47.740;7.606;2024-03-02T06:10:31;2.20;;;1.97;;
7501;SDS011;3792;47.740;7.606;2024-03-02T06:12:58;3.57;;;2.20;;
7501;SDS011;3792;47.740;7.606;2024-03-02T06:15:25;2.20;;;2.00;;
7501;SDS011;3792;47.740;7.606;2024-03-02T06:17:52;1.90;;;1.80;;
7501;SDS011;3792;47.740;7.606;2024-03-02T06:20:21;2.87;;;2.00;;
7501;SDS011;3792;47.740;7.606;2024-03-02T06:22:48;2.57;;;2.10;;
7501;SDS011;3792;47.740;7.606;2024-03-02T06:25:15;2.00;;;1.67;;
7501;SDS011;3792;47.740;7.606;2024-03-02T06:27:42;2.30;;;1.87;;
7501;SDS011;3792;47.740;7.606;2024-03-02T06:30:09;1.60;;;1.50;;
7501;SDS011;3792;47.740;7.606;2024-03-02T06:32:37;2.37;;;2.17;;
7501;SDS011;3792;47.740;7.606;2024-03-02T06:35:04;2.00;;;1.77;;
7501;SDS011;3792;47.740;7.606;2024-03-02T06:37:36;1.97;;;1.80;;
7501;SDS011;3792;47.740;7.606;2024-03-02T06:40:05;3.23;;;1.67;;
7501;SDS011;3792;47.740;7.606;2024-03-02T06:42:33;3.13;;;2.00;;
7501;SDS011;3792;47.740;7.606;2024-03-02T06:45:00;1.97;;;1.83;;
7501;SDS011;3792;47.740;7.606;2024-03-02T06:47:27;1.90;;;1.80;;
7501;SDS011;3792;47.740;7.606;2024-03-02T06:49:54;1.97;;;1.70;;
7501;SDS011;3792;47.740;7.606;2024-03-02T06:52:22;2.30;;;1.83;;
7501;SDS011;3792;47.740;7.606;2024-03-02T06:54:50;2.00;;;1.80;;
7501;SDS011;3792;47.740;7.606;2024-03-02T06:57:17;3.20;;;2.00;;
7501;SDS011;3792;47.740;7.606;2024-03-02T06:59:45;2.17;;;1.40;;
7501;SDS011;3792;47.740;7.606;2024-03-02T07:02:15;2.13;;;1.33;;
7501;SDS011;3792;47.740;7.606;2024-03-02T07:04:42;1.93;;;1.80;;
7501;SDS011;3792;47.740;7.606;2024-03-02T07:07:10;2.00;;;1.80;;
7501;SDS011;3792;47.740;7.606;2024-03-02T07:09:37;2.40;;;1.80;;
7501;SDS011;3792;47.740;7.606;2024-03-02T07:12:07;1.83;;;1.60;;
7501;SDS011;3792;47.740;7.606;2024-03-02T07:14:35;1.73;;;1.63;;
7501;SDS011;3792;47.740;7.606;2024-03-02T07:17:36;1.57;;;1.47;;
7501;SDS011;3792;47.740;7.606;2024-03-02T07:20:04;2.23;;;1.80;;
7501;SDS011;3792;47.740;7.606;2024-03-02T07:22:32;2.23;;;1.70;;
7501;SDS011;3792;47.740;7.606;2024-03-02T07:24:59;1.53;;;1.43;;
7501;SDS011;3792;47.740;7.606;2024-03-02T07:27:29;1.73;;;1.63;;
7501;SDS011;3792;47.740;7.606;2024-03-02T07:29:59;1.67;;;1.50;;
7501;SDS011;3792;47.740;7.606;2024-03-02T07:32:26;1.73;;;1.57;;
7501;SDS011;3792;47.740;7.606;2024-03-02T07:34:55;3.17;;;1.67;;
7501;SDS011;3792;47.740;7.606;2024-03-02T07:37:23;2.77;;;1.50;;
7501;SDS011;3792;47.740;7.606;2024-03-02T07:39:51;1.83;;;1.73;;
7501;SDS011;3792;47.740;7.606;2024-03-02T07:42:21;3.10;;;2.03;;
7501;SDS011;3792;47.740;7.606;2024-03-02T07:44:50;2.43;;;1.40;;
7501;SDS011;3792;47.740;7.606;2024-03-02T07:47:17;1.60;;;1.47;;
7501;SDS011;3792;47.740;7.606;2024-03-02T07:49:44;2.27;;;1.60;;
7501;SDS011;3792;47.740;7.606;2024-03-02T07:52:13;3.13;;;1.80;;
7501;SDS011;3792;47.740;7.606;2024-03-02T07:54:40;2.20;;;1.63;;
7501;SDS011;3792;47.740;7.606;2024-03-02T07:57:08;1.93;;;1.60;;
7501;SDS011;3792;47.740;7.606;2024-03-02T07:59:36;2.63;;;1.63;;
7501;SDS011;3792;47.740;7.606;2024-03-02T08:02:05;2.10;;;1.93;;
7501;SDS011;3792;47.740;7.606;2024-03-02T08:04:33;3.83;;;1.80;;
7501;SDS011;3792;47.740;7.606;2024-03-02T08:07:01;2.57;;;1.90;;
7501;SDS011;3792;47.740;7.606;2024-03-02T08:09:28;2.53;;;1.90;;
7501;SDS011;3792;47.740;7.606;2024-03-02T08:11:55;2.60;;;2.10;;
7501;SDS011;3792;47.740;7.606;2024-03-02T08:14:23;2.10;;;1.90;;
7501;SDS011;3792;47.740;7.606;2024-03-02T08:16:50;2.00;;;1.80;;
7501;SDS011;3792;47.740;7.606;2024-03-02T08:19:19;2.63;;;2.10;;
7501;SDS011;3792;47.740;7.606;2024-03-02T08:21:46;3.77;;;2.03;;
7501;SDS011;3792;47.740;7.606;2024-03-02T08:24:13;5.70;;;1.90;;
7501;SDS011;3792;47.740;7.606;2024-03-02T08:26:40;2.00;;;1.80;;
7501;SDS011;3792;47.740;7.606;2024-03-02T08:29:07;2.00;;;1.80;;
7501;SDS011;3792;47.740;7.606;2024-03-02T08:31:34;2.37;;;2.20;;
7501;SDS011;3792;47.740;7.606;2024-03-02T08:34:01;2.20;;;2.00;;
7501;SDS011;3792;47.740;7.606;2024-03-02T08:36:29;3.40;;;2.60;;
7501;SDS011;3792;47.740;7.606;2024-03-02T08:38:57;2.37;;;2.10;;
7501;SDS011;3792;47.740;7.606;2024-03-02T08:41:24;3.57;;;2.30;;
7501;SDS011;3792;47.740;7.606;2024-03-02T08:43:51;3.83;;;2.20;;
7501;SDS011;3792;47.740;7.606;2024-03-02T08:46:18;3.53;;;2.30;;
7501;SDS011;3792;47.740;7.606;2024-03-02T08:48:45;3.00;;;2.53;;
7501;SDS011;3792;47.740;7.606;2024-03-02T08:51:12;2.93;;;2.00;;
7501;SDS011;3792;47.740;7.606;2024-03-02T08:53:40;3.17;;;2.20;;
7501;SDS011;3792;47.740;7.606;2024-03-02T08:56:08;2.10;;;2.00;;
7501;SDS011;3792;47.740;7.606;2024-03-02T08:58:36;2.33;;;2.13;;
7501;SDS011;3792;47.740;7.606;2024-03-02T09:01:03;2.30;;;2.03;;
7501;SDS011;3792;47.740;7.606;2024-03-02T09:03:32;3.20;;;1.80;;
7501;SDS011;3792;47.740;7.606;2024-03-02T09:06:00;2.13;;;1.93;;
7501;SDS011;3792;47.740;7.606;2024-03-02T09:08:27;2.63;;;1.93;;
7501;SDS011;3792;47.740;7.606;2024-03-02T09:10:55;3.60;;;1.80;;
7501;SDS011;3792;47.740;7.606;2024-03-02T09:13:23;2.23;;;2.03;;
7501;SDS011;3792;47.740;7.606;2024-03-02T09:15:50;1.87;;;1.77;;
7501;SDS011;3792;47.740;7.606;2024-03-02T09:18:17;1.83;;;1.70;;
7501;SDS011;3792;47.740;7.606;2024-03-02T09:20:44;2.13;;;1.87;;
7501;SDS011;3792;47.740;7.606;2024-03-02T09:23:12;2.20;;;2.00;;
7501;SDS011;3792;47.740;7.606;2024-03-02T09:25:39;2.90;;;2.17;;
7501;SDS011;3792;47.740;7.606;2024-03-02T09:28:08;2.77;;;1.87;;
7501;SDS011;3792;47.740;7.606;2024-03-02T09:30:35;1.87;;;1.77;;
7501;SDS011;3792;47.740;7.606;2024-03-02T09:33:03;1.90;;;1.67;;
7501;SDS011;3792;47.740;7.606;2024-03-02T09:35:30;3.00;;;2.13;;
7501;SDS011;3792;47.740;7.606;2024-03-02T09:37:58;2.63;;;2.10;;
7501;SDS011;3792;47.740;7.606;2024-03-02T09:40:25;2.00;;;1.80;;
7501;SDS011;3792;47.740;7.606;2024-03-02T09:42:52;3.00;;;1.80;;
7501;SDS011;3792;47.740;7.606;2024-03-02T09:45:23;2.00;;;1.80;;
7501;SDS011;3792;47.740;7.606;2024-03-02T09:47:51;2.70;;;1.67;;
7501;SDS011;3792;47.740;7.606;2024-03-02T09:50:18;2.07;;;1.50;;
7501;SDS011;3792;47.740;7.606;2024-03-02T09:52:47;2.17;;;1.90;;
7501;SDS011;3792;47.740;7.606;2024-03-02T09:55:16;3.53;;;1.90;;
7501;SDS011;3792;47.740;7.606;2024-03-02T09:57:44;2.23;;;1.77;;
7501;SDS011;3792;47.740;7.606;2024-03-02T10:00:14;2.47;;;1.83;;
7501;SDS011;3792;47.740;7.606;2024-03-02T10:02:43;1.90;;;1.80;;
7501;SDS011;3792;47.740;7.606;2024-03-02T10:05:20;1.93;;;1.77;;
7501;SDS011;3792;47.740;7.606;2024-03-02T10:07:58;1.83;;;1.60;;
7501;SDS011;3792;47.740;7.606;2024-03-02T10:10:26;1.80;;;1.50;;
7501;SDS011;3792;47.740;7.606;2024-03-02T10:13:05;1.60;;;1.50;;
7501;SDS011;3792;47.740;7.606;2024-03-02T10:15:34;2.43;;;1.53;;
7501;SDS011;3792;47.740;7.606;2024-03-02T10:18:04;1.73;;;1.63;;
7501;SDS011;3792;47.740;7.606;2024-03-02T10:20:31;2.40;;;1.60;;
7501;SDS011;3792;47.740;7.606;2024-03-02T10:23:09;2.97;;;1.40;;
7501;SDS011;3792;47.740;7.606;2024-03-02T10:25:36;2.67;;;1.53;;
7501;SDS011;3792;47.740;7.606;2024-03-02T10:28:04;1.93;;;1.73;;
7501;SDS011;3792;47.740;7.606;2024-03-02T10:30:33;1.70;;;1.60;;
7501;SDS011;3792;47.740;7.606;2024-03-02T10:33:00;1.70;;;1.50;;
7501;SDS011;3792;47.740;7.606;2024-03-02T10:35:29;1.40;;;1.30;;
7501;SDS011;3792;47.740;7.606;2024-03-02T10:37:58;1.27;;;1.17;;
7501;SDS011;3792;47.740;7.606;2024-03-02T10:40:26;1.70;;;1.60;;
7501;SDS011;3792;47.740;7.606;2024-03-02T10:42:53;2.00;;;1.30;;
7501;SDS011;3792;47.740;7.606;2024-03-02T10:45:21;1.90;;;1.80;;
7501;SDS011;3792;47.740;7.606;2024-03-02T10:47:49;1.17;;;1.17;;
7501;SDS011;3792;47.740;7.606;2024-03-02T10:50:17;1.40;;;1.30;;
7501;SDS011;3792;47.740;7.606;2024-03-02T10:52:45;1.77;;;1.30;;
7501;SDS011;3792;47.740;7.606;2024-03-02T10:55:31;1.43;;;1.33;;
7501;SDS011;3792;47.740;7.606;2024-03-02T10:58:09;1.40;;;1.30;;
7501;SDS011;3792;47.740;7.606;2024-03-02T11:00:40;1.63;;;1.27;;
7501;SDS011;3792;47.740;7.606;2024-03-02T11:03:11;1.97;;;1.30;;
7501;SDS011;3792;47.740;7.606;2024-03-02T11:05:40;2.37;;;1.20;;
7501;SDS011;3792;47.740;7.606;2024-03-02T11:08:13;2.60;;;1.23;;
7501;SDS011;3792;47.740;7.606;2024-03-02T11:10:45;1.43;;;1.33;;
7501;SDS011;3792;47.740;7.606;2024-03-02T11:13:20;1.20;;;1.10;;
7501;SDS011;3792;47.740;7.606;2024-03-02T11:15:51;1.13;;;1.13;;
7501;SDS011;3792;47.740;7.606;2024-03-02T11:18:21;1.50;;;1.23;;
7501;SDS011;3792;47.740;7.606;2024-03-02T11:20:49;2.83;;;1.23;;
7501;SDS011;3792;47.740;7.606;2024-03-02T11:23:17;1.47;;;1.37;;
7501;SDS011;3792;47.740;7.606;2024-03-02T11:25:45;2.90;;;1.07;;
7501;SDS011;3792;47.740;7.606;2024-03-02T11:28:12;1.50;;;1.40;;
7501;SDS011;3792;47.740;7.606;2024-03-02T11:30:49;2.17;;;1.03;;
7501;SDS011;3792;47.740;7.606;2024-03-02T11:33:18;1.53;;;1.43;;
7501;SDS011;3792;47.740;7.606;2024-03-02T11:35:55;1.50;;;1.40;;
7501;SDS011;3792;47.740;7.606;2024-03-02T11:38:29;1.70;;;1.40;;
7501;SDS011;3792;47.740;7.606;2024-03-02T11:41:05;1.50;;;1.40;;
7501;SDS011;3792;47.740;7.606;2024-03-02T11:43:36;1.40;;;1.30;;
7501;SDS011;3792;47.740;7.606;2024-03-02T11:46:05;1.30;;;1.20;;
7501;SDS011;3792;47.740;7.606;2024-03-02T11:48:34;1.63;;;1.53;;
7501;SDS011;3792;47.740;7.606;2024-03-02T11:51:03;1.47;;;1.27;;
7501;SDS011;3792;47.740;7.606;2024-03-02T11:53:32;2.53;;;1.17;;
7501;SDS011;3792;47.740;7.606;2024-03-02T11:56:01;0.90;;;0.80;;
7501;SDS011;3792;47.740;7.606;2024-03-02T11:58:30;1.00;;;1.00;;
7501;SDS011;3792;47.740;7.606;2024-03-02T12:00:59;0.87;;;0.80;;
7501;SDS011;3792;47.740;7.606;2024-03-02T12:03:27;0.90;;;0.90;;
7501;SDS011;3792;47.740;7.606;2024-03-02T12:05:54;0.67;;;0.67;;
7501;SDS011;3792;47.740;7.606;2024-03-02T12:08:22;1.00;;;0.83;;
7501;SDS011;3792;47.740;7.606;2024-03-02T12:10:57;0.80;;;0.80;;
7501;SDS011;3792;47.740;7.606;2024-03-02T12:13:24;0.83;;;0.70;;
7501;SDS011;3792;47.740;7.606;2024-03-02T12:15:53;0.70;;;0.70;;
7501;SDS011;3792;47.740;7.606;2024-03-02T12:18:21;1.00;;;0.90;;
7501;SDS011;3792;47.740;7.606;2024-03-02T12:20:48;1.23;;;0.63;;
7501;SDS011;3792;47.740;7.606;2024-03-02T12:23:18;0.80;;;0.80;;
7501;SDS011;3792;47.740;7.606;2024-03-02T12:25:46;0.90;;;0.80;;
7501;SDS011;3792;47.740;7.606;2024-03-02T12:28:14;1.17;;;1.13;;
7501;SDS011;3792;47.740;7.606;2024-03-02T12:30:41;1.13;;;1.03;;
7501;SDS011;3792;47.740;7.606;2024-03-02T12:33:09;1.10;;;1.00;;
7501;SDS011;3792;47.740;7.606;2024-03-02T12:35:38;0.60;;;0.60;;
7501;SDS011;3792;47.740;7.606;2024-03-02T12:38:06;0.77;;;0.77;;
7501;SDS011;3792;47.740;7.606;2024-03-02T12:40:33;0.80;;;0.80;;
7501;SDS011;3792;47.740;7.606;2024-03-02T12:43:02;1.03;;;0.93;;
7501;SDS011;3792;47.740;7.606;2024-03-02T12:45:30;1.97;;;0.87;;
7501;SDS011;3792;47.740;7.606;2024-03-02T12:47:59;0.87;;;0.87;;
7501;SDS011;3792;47.740;7.606;2024-03-02T12:50:27;1.83;;;1.13;;
7501;SDS011;3792;47.740;7.606;2024-03-02T12:52:54;1.30;;;1.20;;
7501;SDS011;3792;47.740;7.606;2024-03-02T12:55:22;1.20;;;1.10;;
7501;SDS011;3792;47.740;7.606;2024-03-02T12:57:50;1.03;;;1.00;;
7501;SDS011;3792;47.740;7.606;2024-03-02T13:00:18;2.23;;;0.93;;
7501;SDS011;3792;47.740;7.606;2024-03-02T13:02:47;1.23;;;1.10;;
7501;SDS011;3792;47.740;7.606;2024-03-02T13:05:15;1.27;;;1.07;;
7501;SDS011;3792;47.740;7.606;2024-03-02T13:07:42;1.70;;;1.13;;
7501;SDS011;3792;47.740;7.606;2024-03-02T13:10:10;1.20;;;1.10;;
7501;SDS011;3792;47.740;7.606;2024-03-02T13:12:39;2.03;;;1.20;;
7501;SDS011;3792;47.740;7.606;2024-03-02T13:15:06;1.53;;;1.20;;
7501;SDS011;3792;47.740;7.606;2024-03-02T13:17:35;1.00;;;1.00;;
7501;SDS011;3792;47.740;7.606;2024-03-02T13:20:04;1.50;;;1.40;;
7501;SDS011;3792;47.740;7.606;2024-03-02T13:22:35;1.40;;;1.30;;
7501;SDS011;3792;47.740;7.606;2024-03-02T13:25:03;1.30;;;1.23;;
7501;SDS011;3792;47.740;7.606;2024-03-02T13:27:30;2.20;;;1.40;;
7501;SDS011;3792;47.740;7.606;2024-03-02T13:29:58;1.20;;;1.20;;
7501;SDS011;3792;47.740;7.606;2024-03-02T13:32:25;1.00;;;1.00;;
7501;SDS011;3792;47.740;7.606;2024-03-02T13:34:52;1.30;;;1.20;;
7501;SDS011;3792;47.740;7.606;2024-03-02T13:37:21;2.30;;;2.10;;
7501;SDS011;3792;47.740;7.606;2024-03-02T13:39:48;1.87;;;1.77;;
7501;SDS011;3792;47.740;7.606;2024-03-02T13:42:15;1.47;;;1.27;;
7501;SDS011;3792;47.740;7.606;2024-03-02T13:44:43;1.50;;;1.40;;
7501;SDS011;3792;47.740;7.606;2024-03-02T13:47:13;2.67;;;2.00;;
7501;SDS011;3792;47.740;7.606;2024-03-02T13:49:40;3.60;;;2.67;;
7501;SDS011;3792;47.740;7.606;2024-03-02T13:52:09;2.70;;;2.50;;
7501;SDS011;3792;47.740;7.606;2024-03-02T13:54:39;4.17;;;2.67;;
7501;SDS011;3792;47.740;7.606;2024-03-02T13:57:07;3.50;;;2.87;;
7501;SDS011;3792;47.740;7.606;2024-03-02T13:59:35;3.00;;;2.70;;
7501;SDS011;3792;47.740;7.606;2024-03-02T14:02:03;2.67;;;2.47;;
7501;SDS011;3792;47.740;7.606;2024-03-02T14:04:32;3.73;;;2.80;;
7501;SDS011;3792;47.740;7.606;2024-03-02T14:06:59;3.90;;;3.33;;
7501;SDS011;3792;47.740;7.606;2024-03-02T14:09:27;4.30;;;3.90;;
7501;SDS011;3792;47.740;7.606;2024-03-02T14:11:55;7.03;;;3.73;;
7501;SDS011;3792;47.740;7.606;2024-03-02T14:14:23;5.83;;;3.67;;
7501;SDS011;3792;47.740;7.606;2024-03-02T14:16:50;3.80;;;3.17;;
7501;SDS011;3792;47.740;7.606;2024-03-02T14:19:17;2.83;;;2.50;;
7501;SDS011;3792;47.740;7.606;2024-03-02T14:21:44;7.33;;;2.53;;
7501;SDS011;3792;47.740;7.606;2024-03-02T14:24:12;5.63;;;4.13;;
7501;SDS011;3792;47.740;7.606;2024-03-02T14:26:39;5.17;;;3.90;;
7501;SDS011;3792;47.740;7.606;2024-03-02T14:29:08;3.20;;;2.30;;
7501;SDS011;3792;47.740;7.606;2024-03-02T14:31:36;2.10;;;1.90;;
7501;SDS011;3792;47.740;7.606;2024-03-02T14:34:03;2.53;;;2.00;;
7501;SDS011;3792;47.740;7.606;2024-03-02T14:36:30;2.67;;;2.10;;
7501;SDS011;3792;47.740;7.606;2024-03-02T14:38:57;2.17;;;1.80;;
7501;SDS011;3792;47.740;7.606;2024-03-02T14:41:24;2.77;;;1.87;;
7501;SDS011;3792;47.740;7.606;2024-03-02T14:43:51;2.50;;;2.20;;
7501;SDS011;3792;47.740;7.606;2024-03-02T14:46:20;3.10;;;2.03;;
7501;SDS011;3792;47.740;7.606;2024-03-02T14:48:47;2.10;;;1.93;;
7501;SDS011;3792;47.740;7.606;2024-03-02T14:51:14;2.40;;;1.90;;
7501;SDS011;3792;47.740;7.606;2024-03-02T14:53:41;2.40;;;2.20;;
7501;SDS011;3792;47.740;7.606;2024-03-02T14:56:08;3.60;;;1.90;;
7501;SDS011;3792;47.740;7.606;2024-03-02T14:58:35;2.80;;;2.47;;
7501;SDS011;3792;47.740;7.606;2024-03-02T15:01:03;2.30;;;2.10;;
7501;SDS011;3792;47.740;7.606;2024-03-02T15:03:32;1.97;;;1.60;;
7501;SDS011;3792;47.740;7.606;2024-03-02T15:05:59;2.23;;;2.03;;
7501;SDS011;3792;47.740;7.606;2024-03-02T15:08:26;3.77;;;1.83;;
7501;SDS011;3792;47.740;7.606;2024-03-02T15:10:53;3.63;;;2.47;;
7501;SDS011;3792;47.740;7.606;2024-03-02T15:13:22;2.30;;;2.10;;
7501;SDS011;3792;47.740;7.606;2024-03-02T15:15:50;2.40;;;2.20;;
7501;SDS011;3792;47.740;7.606;2024-03-02T15:18:17;2.37;;;2.00;;
7501;SDS011;3792;47.740;7.606;2024-03-02T15:20:46;1.83;;;1.73;;
7501;SDS011;3792;47.740;7.606;2024-03-02T15:23:13;2.03;;;1.83;;